Terminal Aerodrome Forecast
Issued by NWS Topeka, KS

Home | Current Version | Previous Version | Graphics & Text | Print | Product List | Glossary On
Versions: 1 2 3 4 5 6 7 8 9 10 11 12 13 14 15
840
FTUS43 KTOP 122333
TAFTOP
TAF
KTOP 122333Z 1300/1324 VRB03KT P6SM SKC
     FM130800 22003KT P6SM SKC WS017/27040KT
     FM131300 26008KT P6SM FEW250
     FM131500 29012KT P6SM FEW250
     FM131700 31016G26KT P6SM FEW250=

USA.gov is the U.S. government's official web portal to all federal, state and local government web resources and services.